createdAt,value
2018-03-19T00:01:57.904Z,6.80
2018-03-19T00:04:29.961Z,6.47
2018-03-19T00:06:58.198Z,7.27
2018-03-19T00:09:26.484Z,7.50
2018-03-19T00:11:54.745Z,8.60
2018-03-19T00:14:22.980Z,6.87
2018-03-19T00:16:51.985Z,7.67
2018-03-19T00:19:21.586Z,7.20
2018-03-19T00:21:50.596Z,8.60
2018-03-19T00:24:18.841Z,7.47
2018-03-19T00:26:47.102Z,7.53
2018-03-19T00:29:16.118Z,7.73
2018-03-19T00:31:44.349Z,6.73
2018-03-19T00:34:12.609Z,6.97
2018-03-19T00:36:40.850Z,7.10
2018-03-19T00:39:09.883Z,6.73
2018-03-19T00:41:38.877Z,8.57
2018-03-19T00:44:07.181Z,6.10
2018-03-19T00:46:35.413Z,6.77
2018-03-19T00:49:03.673Z,8.10
2018-03-19T00:51:32.674Z,6.07
2018-03-19T00:54:00.913Z,6.90
2018-03-19T00:56:29.173Z,7.00
2018-03-19T00:58:57.409Z,6.80
2018-03-19T01:01:25.647Z,6.30
2018-03-19T01:03:54.285Z,7.37
2018-03-19T01:06:22.626Z,6.93
2018-03-19T01:08:51.620Z,7.27
2018-03-19T01:11:20.641Z,7.37
2018-03-19T01:13:48.985Z,7.90
2018-03-19T01:16:17.217Z,6.57
2018-03-19T01:18:45.474Z,6.03
2018-03-19T01:21:13.709Z,7.27
2018-03-19T01:23:41.937Z,7.23
2018-03-19T01:26:10.620Z,6.73
2018-03-19T01:28:38.873Z,7.13
2018-03-19T01:31:07.110Z,6.67
2018-03-19T01:33:35.371Z,7.47
2018-03-19T01:36:03.606Z,7.40
2018-03-19T01:38:31.837Z,7.30
2018-03-19T01:41:00.187Z,7.27
2018-03-19T01:43:28.405Z,6.63
2018-03-19T01:45:56.642Z,6.37
2018-03-19T01:48:25.113Z,7.07
2018-03-19T01:50:53.349Z,6.40
2018-03-19T01:53:21.582Z,7.47
2018-03-19T01:55:49.841Z,6.50
2018-03-19T01:58:18.076Z,6.93
2018-03-19T02:00:46.314Z,7.57
2018-03-19T02:03:14.712Z,7.07
2018-03-19T02:05:42.959Z,7.07
2018-03-19T02:08:11.197Z,7.20
2018-03-19T02:10:40.530Z,7.37
2018-03-19T02:13:08.782Z,7.80
2018-03-19T02:15:37.000Z,7.90
2018-03-19T02:18:05.261Z,6.60
2018-03-19T02:20:33.493Z,8.50
2018-03-19T02:23:01.727Z,7.47
2018-03-19T02:25:29.989Z,7.17
2018-03-19T02:27:58.229Z,7.50
2018-03-19T02:30:27.230Z,7.53
2018-03-19T02:32:56.558Z,7.07
2018-03-19T02:35:24.793Z,8.03
2018-03-19T02:37:53.037Z,7.27
2018-03-19T02:40:21.299Z,7.00
2018-03-19T02:42:49.760Z,6.77
2018-03-19T02:45:18.065Z,7.00
2018-03-19T02:47:46.403Z,7.90
2018-03-19T02:50:14.561Z,7.30
2018-03-19T02:52:43.553Z,6.67
2018-03-19T02:55:12.877Z,8.23
2018-03-19T02:57:41.105Z,8.83
2018-03-19T03:00:09.338Z,6.87
2018-03-19T03:02:37.605Z,7.67
2018-03-19T03:05:05.834Z,7.30
2018-03-19T03:07:34.074Z,8.73
2018-03-19T03:10:02.326Z,7.00
2018-03-19T03:12:31.782Z,7.30
2018-03-19T03:15:00.013Z,6.67
2018-03-19T03:17:28.914Z,7.77
2018-03-19T03:19:57.140Z,6.77
2018-03-19T03:22:25.369Z,6.27
2018-03-19T03:24:53.629Z,8.10
2018-03-19T03:27:21.861Z,7.50
2018-03-19T03:29:50.097Z,7.70
2018-03-19T03:32:18.510Z,7.30
2018-03-19T03:34:46.747Z,7.43
2018-03-19T03:37:14.982Z,6.30
2018-03-19T03:39:43.409Z,7.60
2018-03-19T03:42:11.645Z,6.90
2018-03-19T03:44:40.113Z,6.70
2018-03-19T03:47:08.381Z,7.23
2018-03-19T03:49:38.122Z,6.97
2018-03-19T03:52:07.125Z,7.03
2018-03-19T03:54:35.385Z,6.43
2018-03-19T03:57:03.620Z,7.83
2018-03-19T03:59:32.205Z,7.50
2018-03-19T04:02:00.981Z,7.30
2018-03-19T04:04:29.209Z,6.73
2018-03-19T04:06:57.459Z,9.33
2018-03-19T04:09:25.739Z,7.10
2018-03-19T04:11:53.986Z,7.30
2018-03-19T04:14:22.222Z,9.07
2018-03-19T04:16:51.283Z,8.17
2018-03-19T04:19:19.521Z,7.40
2018-03-19T04:21:47.757Z,5.80
2018-03-19T04:24:16.636Z,8.70
2018-03-19T04:26:44.842Z,6.60
2018-03-19T04:29:13.074Z,8.37
2018-03-19T04:31:41.349Z,7.03
2018-03-19T04:34:09.592Z,7.57
2018-03-19T04:36:37.833Z,7.73
2018-03-19T04:39:06.106Z,11.13
2018-03-19T04:41:34.353Z,8.30
2018-03-19T04:44:02.597Z,9.17
2018-03-19T04:46:31.137Z,8.20
2018-03-19T04:49:00.145Z,9.30
2018-03-19T04:51:29.157Z,9.10
2018-03-19T04:53:57.435Z,8.27
2018-03-19T04:56:25.670Z,8.07
2018-03-19T04:58:53.915Z,7.30
2018-03-19T05:01:22.181Z,7.27
2018-03-19T05:03:50.418Z,8.03
2018-03-19T05:06:20.597Z,7.90
2018-03-19T05:08:49.257Z,8.17
2018-03-19T05:11:17.556Z,7.87
2018-03-19T05:13:45.742Z,9.63
2018-03-19T05:16:14.016Z,8.33
2018-03-19T05:18:42.261Z,7.97
2018-03-19T05:21:10.501Z,9.43
2018-03-19T05:23:38.769Z,9.10
2018-03-19T05:26:07.014Z,8.07
2018-03-19T05:28:35.253Z,8.67
2018-03-19T05:31:03.852Z,8.23
2018-03-19T05:33:32.158Z,7.93
2018-03-19T05:36:00.434Z,8.50
2018-03-19T05:38:28.690Z,7.33
2018-03-19T05:40:56.925Z,10.20
2018-03-19T05:43:25.173Z,9.83
2018-03-19T05:45:55.622Z,10.33
2018-03-19T05:48:25.273Z,10.70
2018-03-19T05:50:53.608Z,9.43
2018-03-19T05:53:21.963Z,8.67
2018-03-19T05:55:50.534Z,8.57
2018-03-19T05:58:18.785Z,9.93
2018-03-19T06:00:47.050Z,7.63
2018-03-19T06:03:15.305Z,9.07
2018-03-19T06:05:43.553Z,9.47
2018-03-19T06:08:11.820Z,7.50
2018-03-19T06:10:40.057Z,9.63
2018-03-19T06:13:08.294Z,8.13
2018-03-19T06:15:36.837Z,9.90
2018-03-19T06:18:05.110Z,9.20
2018-03-19T06:20:33.340Z,9.07
2018-03-19T06:23:01.785Z,7.90
2018-03-19T06:25:30.003Z,8.60
2018-03-19T06:27:59.001Z,9.90
2018-03-19T06:30:28.034Z,7.40
2018-03-19T06:32:56.358Z,9.07
2018-03-19T06:35:24.597Z,7.93
2018-03-19T06:37:53.467Z,7.60
2018-03-19T06:40:21.711Z,8.57
2018-03-19T06:42:49.945Z,7.63
2018-03-19T06:45:18.244Z,9.30
2018-03-19T06:47:46.493Z,9.27
2018-03-19T06:50:16.006Z,9.97
2018-03-19T06:52:44.266Z,8.90
2018-03-19T06:55:12.502Z,7.93
2018-03-19T06:57:40.749Z,8.30
2018-03-19T07:00:09.198Z,7.50
2018-03-19T07:02:37.532Z,8.57
2018-03-19T07:05:06.538Z,8.33
2018-03-19T07:07:35.556Z,8.10
2018-03-19T07:10:03.893Z,8.07
2018-03-19T07:12:32.895Z,8.97
2018-03-19T07:15:01.927Z,8.50
2018-03-19T07:17:32.383Z,8.53
2018-03-19T07:20:00.625Z,7.80
2018-03-19T07:22:29.443Z,9.10
2018-03-19T07:24:57.698Z,8.43
2018-03-19T07:27:25.931Z,7.30
2018-03-19T07:29:54.962Z,8.40
2018-03-19T07:32:23.207Z,9.83
2018-03-19T07:34:51.446Z,9.97
2018-03-19T07:37:19.704Z,9.47
2018-03-19T07:39:47.941Z,8.93
2018-03-19T07:42:16.182Z,7.73
2018-03-19T07:44:45.596Z,9.07
2018-03-19T07:47:13.817Z,7.83
2018-03-19T07:49:42.058Z,9.60
2018-03-19T07:52:10.648Z,8.73
2018-03-19T07:54:39.657Z,7.93
2018-03-19T07:57:07.898Z,8.37
2018-03-19T07:59:36.161Z,11.03
2018-03-19T08:02:04.405Z,8.60
2018-03-19T08:04:32.642Z,8.57
2018-03-19T08:07:01.397Z,8.90
2018-03-19T08:09:30.387Z,8.37
2018-03-19T08:11:58.610Z,9.00
2018-03-19T08:14:27.632Z,9.20
2018-03-19T08:16:55.873Z,9.17
2018-03-19T08:19:24.117Z,10.90
2018-03-19T08:21:52.385Z,9.20
2018-03-19T08:24:20.805Z,8.50
2018-03-19T08:29:47.290Z,8.10
2018-03-19T08:32:15.567Z,10.83
2018-03-19T08:34:43.805Z,11.03
2018-03-19T08:37:12.818Z,9.20
2018-03-19T08:39:41.862Z,10.00
2018-03-19T08:42:10.096Z,7.80
2018-03-19T08:44:38.330Z,8.47
2018-03-19T08:47:06.982Z,8.40
2018-03-19T08:49:35.221Z,8.30
2018-03-19T08:52:03.459Z,9.60
2018-03-19T08:54:32.049Z,9.53
2018-03-19T08:57:00.337Z,23.97
2018-03-19T08:59:28.711Z,9.00
2018-03-19T09:01:56.952Z,10.27
2018-03-19T09:04:25.198Z,8.50
2018-03-19T09:06:53.433Z,8.27
2018-03-19T09:09:22.186Z,8.80
2018-03-19T09:11:50.414Z,9.20
2018-03-19T09:14:18.654Z,8.80
2018-03-19T09:16:46.948Z,9.93
2018-03-19T09:19:15.221Z,9.27
2018-03-19T09:21:43.458Z,10.20
2018-03-19T09:24:11.738Z,10.70
2018-03-19T09:26:39.988Z,9.30
2018-03-19T09:29:08.225Z,11.90
2018-03-19T09:31:36.581Z,11.00
2018-03-19T09:34:04.836Z,11.13
2018-03-19T09:36:33.328Z,9.93
2018-03-19T09:39:01.694Z,11.70
2018-03-19T09:41:29.953Z,10.00
2018-03-19T09:43:58.193Z,10.03
2018-03-19T09:46:26.473Z,9.23
2018-03-19T09:48:54.738Z,10.60
2018-03-19T09:51:22.983Z,9.47
2018-03-19T09:53:51.293Z,9.37
2018-03-19T09:56:19.760Z,9.90
2018-03-19T09:58:48.027Z,10.13
2018-03-19T10:01:16.280Z,8.77
2018-03-19T10:03:44.536Z,9.80
2018-03-19T10:06:12.814Z,9.10
2018-03-19T10:08:41.095Z,9.97
2018-03-19T10:11:09.333Z,9.83
2018-03-19T10:13:37.564Z,8.20
2018-03-19T10:16:06.488Z,10.50
2018-03-19T10:18:34.747Z,9.20
2018-03-19T10:21:02.985Z,10.70
2018-03-19T10:23:31.254Z,9.33
2018-03-19T10:25:59.501Z,9.30
2018-03-19T10:28:27.736Z,9.23
2018-03-19T10:30:56.025Z,10.60
2018-03-19T10:33:24.309Z,9.77
2018-03-19T10:35:53.278Z,9.43
2018-03-19T10:38:21.893Z,9.90
2018-03-19T10:40:50.129Z,9.67
2018-03-19T10:43:18.373Z,9.30
2018-03-19T10:45:46.683Z,11.37
2018-03-19T10:48:14.917Z,11.00
2018-03-19T10:50:43.170Z,10.23
2018-03-19T10:53:11.460Z,11.13
2018-03-19T10:55:39.694Z,12.00
2018-03-19T10:58:08.266Z,10.27
2018-03-19T11:00:37.622Z,10.37
2018-03-19T11:03:06.788Z,9.97
2018-03-19T11:05:40.800Z,10.50
2018-03-19T11:08:09.054Z,10.50
2018-03-19T11:10:37.297Z,10.80
2018-03-19T11:13:05.612Z,9.30
2018-03-19T11:15:35.797Z,11.63
2018-03-19T11:18:04.070Z,10.17
2018-03-19T11:20:32.649Z,11.00
2018-03-19T11:23:00.954Z,11.40
2018-03-19T11:25:29.169Z,11.70
2018-03-19T11:27:57.484Z,10.07
2018-03-19T11:30:25.731Z,10.90
2018-03-19T11:32:54.026Z,10.60
2018-03-19T11:35:22.283Z,10.13
2018-03-19T11:37:50.550Z,10.90
2018-03-19T11:40:18.802Z,11.13
2018-03-19T11:42:47.557Z,10.97
2018-03-19T11:45:15.904Z,10.60
2018-03-19T11:47:44.201Z,9.60
2018-03-19T11:50:12.464Z,11.57
2018-03-19T11:52:40.893Z,10.30
2018-03-19T11:55:09.129Z,9.80
2018-03-19T11:57:37.457Z,10.13
2018-03-19T12:00:07.069Z,11.50
2018-03-19T12:02:35.330Z,10.90
2018-03-19T12:05:04.201Z,10.50
2018-03-19T12:07:32.491Z,10.23
2018-03-19T12:10:00.801Z,9.20
2018-03-19T12:12:29.833Z,11.07
2018-03-19T12:14:58.090Z,11.40
2018-03-19T12:17:26.469Z,10.33
2018-03-19T12:19:54.779Z,10.60
2018-03-19T12:22:23.141Z,9.60
2018-03-19T12:24:51.366Z,10.93
2018-03-19T12:27:20.740Z,10.77
2018-03-19T12:29:49.018Z,11.80
2018-03-19T12:32:17.341Z,10.90
2018-03-19T12:34:45.673Z,10.30
2018-03-19T12:37:13.935Z,13.10
2018-03-19T12:39:42.172Z,10.10
2018-03-19T12:42:10.513Z,11.27
2018-03-19T12:44:38.757Z,11.47
2018-03-19T12:47:07.074Z,10.30
2018-03-19T12:49:36.203Z,11.40
2018-03-19T12:52:04.470Z,10.87
2018-03-19T12:54:33.527Z,10.93
2018-03-19T12:57:01.806Z,10.37
2018-03-19T12:59:30.049Z,8.93
2018-03-19T13:01:58.810Z,9.30
2018-03-19T13:04:27.091Z,8.57
2018-03-19T13:06:55.341Z,9.30
2018-03-19T13:09:23.643Z,11.10
2018-03-19T13:11:52.501Z,10.43
2018-03-19T13:14:20.729Z,9.00
2018-03-19T13:16:48.973Z,8.70
2018-03-19T13:19:17.421Z,10.23
2018-03-19T13:21:45.718Z,9.97
2018-03-19T13:24:14.060Z,10.57
2018-03-19T13:26:42.356Z,9.90
2018-03-19T13:29:10.602Z,10.17
2018-03-19T13:31:38.867Z,10.23
2018-03-19T13:34:07.611Z,11.97
2018-03-19T13:36:35.886Z,11.20
2018-03-19T13:39:04.144Z,10.23
2018-03-19T13:41:32.427Z,10.23
2018-03-19T13:44:00.798Z,11.73
2018-03-19T13:46:29.057Z,10.60
2018-03-19T13:48:57.338Z,11.23
2018-03-19T13:51:25.687Z,10.10
2018-03-19T13:53:54.738Z,11.73
2018-03-19T13:56:23.375Z,10.50
2018-03-19T13:58:51.665Z,11.40
2018-03-19T14:01:20.194Z,9.93
2018-03-19T14:03:48.745Z,10.67
2018-03-19T14:06:17.048Z,9.90
2018-03-19T14:08:46.781Z,9.00
2018-03-19T14:11:15.953Z,11.30
2018-03-19T14:13:44.206Z,10.50
2018-03-19T14:16:12.498Z,10.70
2018-03-19T14:18:41.143Z,10.20
2018-03-19T14:21:09.421Z,10.07
2018-03-19T14:23:37.686Z,10.73
2018-03-19T14:26:05.961Z,10.90
2018-03-19T14:28:34.225Z,10.70
2018-03-19T14:31:02.525Z,11.00
2018-03-19T14:33:30.949Z,10.90
2018-03-19T14:35:59.222Z,9.60
2018-03-19T14:38:27.473Z,10.27
2018-03-19T14:40:56.306Z,10.13
2018-03-19T14:43:25.327Z,11.07
2018-03-19T14:45:53.575Z,9.93
2018-03-19T14:48:21.865Z,8.90
2018-03-19T14:50:51.703Z,10.73
2018-03-19T14:53:19.884Z,10.17
2018-03-19T14:55:49.154Z,10.07
2018-03-19T14:58:17.413Z,10.43
2018-03-19T15:00:45.661Z,8.40
2018-03-19T15:03:14.074Z,10.43
2018-03-19T15:05:42.789Z,11.03
2018-03-19T15:08:11.813Z,10.17
2018-03-19T15:10:40.083Z,9.90
2018-03-19T15:13:08.373Z,9.30
2018-03-19T15:15:36.696Z,10.20
2018-03-19T15:18:04.986Z,10.10
2018-03-19T15:20:34.073Z,10.20
2018-03-19T15:23:02.335Z,9.60
2018-03-19T15:25:30.795Z,10.67
2018-03-19T15:27:59.045Z,10.77
2018-03-19T15:30:27.299Z,10.80
2018-03-19T15:32:55.638Z,11.27
2018-03-19T15:35:23.919Z,10.27
2018-03-19T15:37:52.205Z,11.40
2018-03-19T15:40:20.474Z,11.10
2018-03-19T15:42:48.814Z,9.80
2018-03-19T15:45:17.122Z,10.00
2018-03-19T15:47:45.430Z,10.13
2018-03-19T15:50:13.681Z,11.60
2018-03-19T15:52:41.937Z,11.43
2018-03-19T15:55:10.205Z,11.67
2018-03-19T15:57:38.473Z,11.60
2018-03-19T16:00:06.820Z,10.57
2018-03-19T16:02:35.289Z,11.40
2018-03-19T16:05:03.570Z,11.03
2018-03-19T16:07:31.867Z,10.93
2018-03-19T16:10:01.045Z,16.77
2018-03-19T16:12:29.307Z,12.20
2018-03-19T16:14:57.550Z,9.90
2018-03-19T16:17:25.830Z,10.53
2018-03-19T16:19:54.123Z,11.03
2018-03-19T16:22:22.976Z,10.23
2018-03-19T16:24:51.233Z,12.10
2018-03-19T16:27:21.498Z,10.70
2018-03-19T16:29:49.814Z,10.57
2018-03-19T16:32:18.262Z,10.70
2018-03-19T16:34:46.558Z,11.70
2018-03-19T16:37:14.954Z,10.67
2018-03-19T16:39:43.248Z,10.37
2018-03-19T16:42:11.593Z,11.80
2018-03-19T16:44:40.080Z,10.87
2018-03-19T16:47:08.546Z,11.43
2018-03-19T16:49:36.782Z,13.13
2018-03-19T16:52:05.033Z,10.93
2018-03-19T16:54:34.577Z,11.10
2018-03-19T16:57:02.914Z,11.67
2018-03-19T16:59:31.184Z,10.03
2018-03-19T17:01:59.535Z,10.93
2018-03-19T17:04:28.001Z,11.77
2018-03-19T17:06:57.052Z,9.83
2018-03-19T17:09:26.210Z,10.80
2018-03-19T17:11:54.665Z,10.87
2018-03-19T17:14:23.080Z,10.80
2018-03-19T17:16:52.160Z,12.03
2018-03-19T17:19:20.458Z,10.53
2018-03-19T17:21:48.714Z,12.13
2018-03-19T17:24:17.285Z,11.50
2018-03-19T17:26:45.526Z,9.93
2018-03-19T17:29:13.980Z,10.60
2018-03-19T17:31:42.380Z,11.80
2018-03-19T17:34:13.561Z,11.00
2018-03-19T17:36:41.880Z,10.90
2018-03-19T17:39:10.439Z,10.73
2018-03-19T17:41:39.899Z,11.27
2018-03-19T17:44:08.247Z,12.07
2018-03-19T17:46:36.649Z,13.10
2018-03-19T17:49:05.661Z,10.50
2018-03-19T17:51:33.990Z,11.73
2018-03-19T17:54:02.441Z,10.47
2018-03-19T17:56:32.584Z,12.00
2018-03-19T17:59:01.918Z,11.10
2018-03-19T18:01:31.003Z,10.67
2018-03-19T18:03:59.259Z,10.80
2018-03-19T18:06:27.645Z,12.07
2018-03-19T18:08:56.219Z,12.13
2018-03-19T18:11:25.631Z,11.50
2018-03-19T18:13:54.078Z,11.60
2018-03-19T18:16:22.419Z,11.10
2018-03-19T18:18:50.762Z,11.50
2018-03-19T18:21:19.146Z,11.97
2018-03-19T18:23:47.593Z,12.20
2018-03-19T18:26:16.101Z,11.97
2018-03-19T18:28:44.422Z,12.87
2018-03-19T18:31:12.864Z,11.80
2018-03-19T18:33:41.137Z,12.20
2018-03-19T18:36:09.427Z,12.50
2018-03-19T18:38:37.998Z,12.63
2018-03-19T18:41:06.226Z,11.97
2018-03-19T18:43:34.554Z,11.50
2018-03-19T18:46:03.445Z,13.57
2018-03-19T18:48:31.622Z,14.13
2018-03-19T18:51:00.201Z,10.80
2018-03-19T18:53:28.453Z,13.10
2018-03-19T18:55:56.696Z,12.20
2018-03-19T18:58:24.944Z,12.77
2018-03-19T19:00:53.233Z,12.07
2018-03-19T19:03:21.594Z,11.90
2018-03-19T19:05:50.014Z,12.60
2018-03-19T19:08:18.804Z,12.87
2018-03-19T19:10:47.961Z,11.90
2018-03-19T19:13:16.340Z,12.27
2018-03-19T19:15:45.671Z,13.00
2018-03-19T19:18:14.677Z,13.50
2018-03-19T19:20:43.702Z,12.53
2018-03-19T19:23:12.410Z,12.90
2018-03-19T19:25:42.836Z,10.73
2018-03-19T19:28:11.217Z,14.60
2018-03-19T19:30:39.905Z,14.00
2018-03-19T19:33:09.218Z,12.77
2018-03-19T19:35:37.787Z,13.80
2018-03-19T19:38:06.492Z,10.97
2018-03-19T19:40:34.740Z,13.60
2018-03-19T19:43:03.044Z,12.93
2018-03-19T19:45:31.437Z,13.93
2018-03-19T19:48:00.445Z,12.47
2018-03-19T19:50:29.518Z,12.67
2018-03-19T19:52:58.125Z,13.57
2018-03-19T19:55:26.477Z,14.60
2018-03-19T19:57:54.837Z,15.90
2018-03-19T20:00:23.317Z,13.07
2018-03-19T20:02:51.650Z,11.37
2018-03-19T20:05:20.881Z,11.70
2018-03-19T20:07:49.354Z,12.20
2018-03-19T20:10:17.667Z,12.80
2018-03-19T20:12:46.040Z,13.10
2018-03-19T20:15:14.496Z,10.90
2018-03-19T20:17:43.726Z,12.60
2018-03-19T20:20:12.121Z,11.70
2018-03-19T20:22:40.497Z,11.43
2018-03-19T20:25:08.874Z,12.37
2018-03-19T20:27:37.173Z,13.53
2018-03-19T20:30:05.654Z,12.10
2018-03-19T20:32:34.914Z,10.97
2018-03-19T20:35:03.304Z,11.57
2018-03-19T20:37:32.063Z,11.50
2018-03-19T20:40:01.290Z,12.23
2018-03-19T20:42:29.534Z,11.90
2018-03-19T20:44:57.831Z,12.20
2018-03-19T20:47:26.121Z,11.90
2018-03-19T20:49:54.388Z,10.50
2018-03-19T20:52:22.650Z,10.20
2018-03-19T20:54:51.909Z,12.40
2018-03-19T20:57:21.102Z,12.37
2018-03-19T20:59:51.769Z,14.47
2018-03-19T21:02:20.081Z,12.57
2018-03-19T21:04:48.342Z,11.33
2018-03-19T21:07:16.607Z,11.97
2018-03-19T21:09:45.569Z,12.13
2018-03-19T21:12:14.572Z,12.40
2018-03-19T21:14:42.841Z,12.07
2018-03-19T21:17:11.114Z,12.27
2018-03-19T21:19:39.354Z,12.50
2018-03-19T21:22:08.230Z,13.17
2018-03-19T21:24:36.464Z,9.53
2018-03-19T21:27:04.793Z,12.07
2018-03-19T21:29:33.061Z,13.30
2018-03-19T21:32:01.309Z,14.97
2018-03-19T21:34:29.626Z,11.33
2018-03-19T21:36:57.893Z,11.80
2018-03-19T21:39:27.297Z,11.07
2018-03-19T21:41:56.601Z,11.23
2018-03-19T21:44:25.365Z,11.77
2018-03-19T21:46:53.853Z,12.40
2018-03-19T21:49:22.122Z,11.23
2018-03-19T21:51:50.410Z,13.77
2018-03-19T21:54:18.656Z,13.40
2018-03-19T21:56:46.901Z,12.60
2018-03-19T21:59:15.933Z,10.67
2018-03-19T22:01:44.637Z,9.83
2018-03-19T22:04:12.894Z,10.37
2018-03-19T22:06:41.711Z,11.20
2018-03-19T22:09:09.957Z,16.23
2018-03-19T22:11:38.534Z,12.63
2018-03-19T22:14:06.817Z,13.00
2018-03-19T22:16:35.463Z,19.90
2018-03-19T22:19:03.753Z,16.03
2018-03-19T22:21:32.378Z,11.87
2018-03-19T22:24:00.617Z,13.63
2018-03-19T22:26:29.628Z,12.27
2018-03-19T22:28:58.255Z,12.70
2018-03-19T22:31:26.514Z,12.47
2018-03-19T22:33:55.954Z,11.67
2018-03-19T22:36:24.240Z,13.43
2018-03-19T22:38:52.710Z,17.13
2018-03-19T22:41:20.969Z,12.53
2018-03-19T22:43:49.477Z,12.20
2018-03-19T22:46:17.723Z,11.30
2018-03-19T22:48:48.738Z,11.90
2018-03-19T22:51:18.678Z,11.67
2018-03-19T22:53:46.973Z,12.80
2018-03-19T22:56:15.371Z,13.43
2018-03-19T22:58:43.761Z,11.27
2018-03-19T23:01:13.960Z,11.40
2018-03-19T23:03:42.345Z,12.10
2018-03-19T23:06:10.602Z,11.53
2018-03-19T23:08:38.866Z,12.07
2018-03-19T23:11:07.112Z,13.13
2018-03-19T23:13:35.921Z,12.77
2018-03-19T23:16:04.171Z,13.73
2018-03-19T23:18:32.623Z,12.60
2018-03-19T23:21:01.023Z,12.00
2018-03-19T23:23:30.038Z,12.30
2018-03-19T23:25:58.353Z,12.90
2018-03-19T23:28:26.761Z,12.27
2018-03-19T23:30:56.954Z,13.60
2018-03-19T23:33:25.337Z,11.73
2018-03-19T23:35:54.413Z,13.10
2018-03-19T23:38:22.763Z,12.03
2018-03-19T23:40:51.089Z,12.67
2018-03-19T23:43:19.530Z,12.30
2018-03-19T23:45:48.044Z,11.73
2018-03-19T23:48:16.275Z,12.20
2018-03-19T23:50:45.572Z,11.87
2018-03-19T23:53:15.759Z,11.57
2018-03-19T23:55:44.125Z,12.93
2018-03-19T23:58:12.821Z,11.67
